Time;durP1;ratioP1;P1;durP2;ratioP2;P2;SDS_P1;SDS_P2;PMS_P1;PMS_P2;Temp;Humidity;BMP_temperature;BMP_pressure;BME280_temperature;BME280_humidity;BME280_pressure;Samples;Min_cycle;Max_cycle;Signal;HPM_P1;HPM_P2
2022/11/10 00:01:19;;;;;;;;;20.75;18.50;;;;;;;;5084393;27;45319;-73
2022/11/10 00:03:47;;;;;;;;;25.00;21.00;;;;;;;;5090895;27;45434;-73
2022/11/10 00:06:12;;;;;;;;;18.75;18.25;;;;;;;;5084622;27;45208;-73
2022/11/10 00:08:37;;;;;;;;;24.00;23.00;;;;;;;;5083022;27;45378;-73
2022/11/10 00:11:06;;;;;;;;;8.75;4.75;;;;;;;;5082599;27;46012;-73
2022/11/10 00:13:34;;;;;;;;;23.75;22.25;;;;;;;;5091106;27;45402;-73
2022/11/10 00:18:47;;;;;;;;;23.75;22.00;;;;;;;;5096223;27;45341;-73
2022/11/10 00:21:13;;;;;;;;;29.00;23.25;;;;;;;;5083956;27;48085;-73
2022/11/10 00:23:39;;;;;;;;;21.75;19.25;;;;;;;;5090769;27;45410;-73
2022/11/10 00:26:09;;;;;;;;;31.00;26.25;;;;;;;;5083794;27;45300;-73
2022/11/10 00:28:34;;;;;;;;;29.00;25.25;;;;;;;;5092783;27;46250;-73
2022/11/10 00:31:03;;;;;;;;;22.50;19.25;;;;;;;;5089626;27;45633;-73
2022/11/10 00:33:28;;;;;;;;;24.75;21.75;;;;;;;;5081460;27;45319;-74
2022/11/10 00:35:53;;;;;;;;;27.50;24.00;;;;;;;;5086677;27;45497;-74
2022/11/10 00:38:19;;;;;;;;;21.50;19.25;;;;;;;;5087967;27;45938;-74
2022/11/10 00:40:44;;;;;;;;;23.00;21.25;;;;;;;;5081483;27;45232;-75
2022/11/10 00:43:09;;;;;;;;;25.50;21.75;;;;;;;;5082008;27;45260;-73
2022/11/10 00:45:34;;;;;;;;;30.75;24.25;;;;;;;;5091990;27;45197;-73
2022/11/10 00:47:59;;;;;;;;;26.25;23.75;;;;;;;;5086608;27;45646;-73
2022/11/10 00:50:24;;;;;;;;;27.50;22.00;;;;;;;;5094925;27;45590;-74
2022/11/10 00:52:50;;;;;;;;;21.25;20.25;;;;;;;;5085253;27;45385;-74
2022/11/10 00:55:15;;;;;;;;;25.00;23.25;;;;;;;;5081848;27;45254;-73
2022/11/10 00:57:40;;;;;;;;;22.00;20.75;;;;;;;;5095253;27;45404;-73
2022/11/10 01:00:06;;;;;;;;;17.50;16.00;;;;;;;;5081540;27;45110;-73
2022/11/10 01:02:31;;;;;;;;;17.75;17.25;;;;;;;;5089360;27;45689;-73
2022/11/10 01:04:56;;;;;;;;;18.50;17.00;;;;;;;;5081430;27;45339;-73
2022/11/10 01:07:21;;;;;;;;;21.50;18.00;;;;;;;;5083326;27;45244;-74
2022/11/10 01:09:46;;;;;;;;;19.00;17.00;;;;;;;;5082690;27;45382;-74
2022/11/10 01:12:13;;;;;;;;;17.00;16.00;;;;;;;;5089086;27;45448;-73
2022/11/10 01:14:38;;;;;;;;;17.50;13.75;;;;;;;;5081495;27;45413;-73
2022/11/10 01:17:03;;;;;;;;;18.75;16.00;;;;;;;;5082982;27;45319;-73
2022/11/10 01:19:28;;;;;;;;;14.50;13.50;;;;;;;;5089061;27;45820;-73
2022/11/10 01:21:54;;;;;;;;;18.00;16.75;;;;;;;;5081859;27;45367;-73
2022/11/10 01:24:20;;;;;;;;;20.75;16.00;;;;;;;;5080904;27;45350;-73
2022/11/10 01:26:45;;;;;;;;;15.75;14.50;;;;;;;;5086452;27;45343;-73
2022/11/10 01:29:10;;;;;;;;;16.25;15.00;;;;;;;;5084696;27;45491;-73
2022/11/10 01:31:36;;;;;;;;;14.75;12.50;;;;;;;;5087123;27;45609;-74
2022/11/10 01:34:01;;;;;;;;;19.50;16.00;;;;;;;;5093294;27;45228;-73
2022/11/10 01:36:26;;;;;;;;;17.25;13.75;;;;;;;;5082044;27;45554;-73
2022/11/10 01:38:51;;;;;;;;;16.25;12.25;;;;;;;;5080757;27;46453;-74
2022/11/10 01:41:16;;;;;;;;;14.25;12.75;;;;;;;;5082383;27;45248;-73
2022/11/10 01:43:42;;;;;;;;;16.50;10.75;;;;;;;;5081788;27;45232;-73
2022/11/10 01:46:07;;;;;;;;;17.25;15.75;;;;;;;;5082023;27;45221;-73
2022/11/10 01:48:38;;;;;;;;;12.25;12.25;;;;;;;;5083699;27;45975;-73
2022/11/10 01:51:18;;;;;;;;;12.00;12.00;;;;;;;;5082698;27;45370;-73
2022/11/10 01:53:45;;;;;;;;;12.25;12.25;;;;;;;;5083717;27;45310;-73
2022/11/10 01:56:13;;;;;;;;;16.75;15.25;;;;;;;;5080085;27;45380;-73
2022/11/10 01:58:42;;;;;;;;;20.25;14.75;;;;;;;;5090281;27;45437;-73
2022/11/10 02:01:07;;;;;;;;;13.50;12.75;;;;;;;;5080080;27;45470;-73
2022/11/10 02:03:36;;;;;;;;;20.50;17.25;;;;;;;;5079042;27;45386;-73
2022/11/10 02:06:02;;;;;;;;;20.50;16.50;;;;;;;;5081082;27;45441;-73
2022/11/10 02:08:27;;;;;;;;;14.75;13.75;;;;;;;;5080048;27;45444;-73
2022/11/10 02:10:52;;;;;;;;;24.00;19.25;;;;;;;;5082496;27;45325;-73
2022/11/10 02:13:18;;;;;;;;;22.50;17.50;;;;;;;;5086451;27;45464;-73
2022/11/10 02:15:43;;;;;;;;;19.75;17.25;;;;;;;;5088240;27;45475;-73
2022/11/10 02:18:08;;;;;;;;;20.50;19.00;;;;;;;;5082023;27;45455;-73
2022/11/10 02:20:33;;;;;;;;;19.50;18.00;;;;;;;;5094108;27;45541;-73
2022/11/10 02:23:09;;;;;;;;;17.50;14.00;;;;;;;;5082740;27;45563;-73
2022/11/10 02:25:35;;;;;;;;;19.50;17.00;;;;;;;;5079476;27;45401;-73
2022/11/10 02:28:00;;;;;;;;;21.25;19.00;;;;;;;;5085328;27;45334;-73
2022/11/10 02:30:25;;;;;;;;;26.50;19.00;;;;;;;;5080165;28;45375;-73
2022/11/10 02:32:50;;;;;;;;;21.50;17.75;;;;;;;;5079220;27;45408;-73
2022/11/10 02:35:15;;;;;;;;;24.50;22.50;;;;;;;;5082162;27;46301;-73
2022/11/10 02:37:41;;;;;;;;;21.75;21.75;;;;;;;;5086453;27;45342;-75
2022/11/10 02:40:06;;;;;;;;;27.50;22.75;;;;;;;;5080038;27;45215;-73
2022/11/10 02:42:31;;;;;;;;;26.75;20.50;;;;;;;;5091972;27;45363;-73
2022/11/10 02:44:57;;;;;;;;;24.50;22.75;;;;;;;;5085092;27;45197;-73
2022/11/10 02:47:22;;;;;;;;;24.75;23.00;;;;;;;;5097415;27;47489;-73
2022/11/10 02:49:48;;;;;;;;;20.50;16.75;;;;;;;;5081947;27;45395;-73
2022/11/10 02:52:14;;;;;;;;;27.75;22.25;;;;;;;;5081721;27;45372;-73
2022/11/10 02:54:39;;;;;;;;;22.50;17.00;;;;;;;;5082006;27;47031;-73
2022/11/10 02:57:04;;;;;;;;;20.50;19.25;;;;;;;;5092614;27;45386;-73
2022/11/10 02:59:29;;;;;;;;;5.50;3.00;;;;;;;;5088723;27;45399;-73
2022/11/10 03:01:54;;;;;;;;;17.25;13.75;;;;;;;;5089007;27;45254;-73
2022/11/10 03:04:19;;;;;;;;;21.00;16.50;;;;;;;;5092117;27;45805;-73
2022/11/10 03:06:45;;;;;;;;;18.25;15.50;;;;;;;;5081842;27;45465;-73
2022/11/10 03:09:10;;;;;;;;;21.75;17.25;;;;;;;;5079450;27;45204;-73
2022/11/10 03:11:35;;;;;;;;;18.00;16.75;;;;;;;;5082927;27;45268;-73
2022/11/10 03:14:00;;;;;;;;;15.75;15.00;;;;;;;;5079010;27;45323;-73
2022/11/10 03:16:26;;;;;;;;;16.75;14.75;;;;;;;;5081175;27;45340;-73
2022/11/10 03:18:51;;;;;;;;;16.25;15.75;;;;;;;;5079191;27;45341;-73
2022/11/10 03:21:16;;;;;;;;;17.75;16.25;;;;;;;;5081494;27;45241;-73
2022/11/10 03:23:41;;;;;;;;;14.25;14.25;;;;;;;;5078953;27;45262;-73
2022/11/10 03:26:07;;;;;;;;;13.50;11.00;;;;;;;;5080939;27;46395;-73
2022/11/10 03:28:33;;;;;;;;;16.25;11.25;;;;;;;;5079495;27;44781;-73
2022/11/10 03:30:58;;;;;;;;;23.00;20.00;;;;;;;;5091761;27;45377;-73
2022/11/10 03:33:23;;;;;;;;;14.00;9.00;;;;;;;;5078900;27;45342;-73
2022/11/10 03:35:49;;;;;;;;;13.50;12.25;;;;;;;;5082004;27;47349;-73
2022/11/10 03:38:14;;;;;;;;;14.00;11.25;;;;;;;;5080442;27;45448;-73
2022/11/10 03:40:39;;;;;;;;;15.00;11.00;;;;;;;;5078479;27;45256;-73
2022/11/10 03:43:04;;;;;;;;;13.75;10.50;;;;;;;;5082948;27;45243;-73
2022/11/10 03:45:29;;;;;;;;;18.75;16.75;;;;;;;;5078723;27;45387;-73
2022/11/10 03:47:54;;;;;;;;;17.50;10.00;;;;;;;;5084189;27;45396;-73
2022/11/10 03:50:20;;;;;;;;;12.50;11.00;;;;;;;;5079039;27;45323;-73
2022/11/10 03:52:46;;;;;;;;;14.50;10.50;;;;;;;;5087546;27;46141;-73
2022/11/10 03:55:13;;;;;;;;;12.75;9.25;;;;;;;;5080078;27;46697;-73
2022/11/10 03:57:38;;;;;;;;;15.25;10.25;;;;;;;;5084297;27;45454;-73
2022/11/10 04:00:04;;;;;;;;;9.50;9.00;;;;;;;;5078633;27;45225;-73
2022/11/10 04:02:29;;;;;;;;;9.50;8.00;;;;;;;;5080417;27;45320;-73
2022/11/10 04:10:22;;;;;;;;;6.00;4.50;;;;;;;;5078602;27;45253;-73
2022/11/10 04:15:43;;;;;;;;;9.75;9.00;;;;;;;;5078502;27;45747;-73
2022/11/10 04:18:25;;;;;;;;;9.25;9.25;;;;;;;;5079740;27;45345;-73
2022/11/10 04:20:50;;;;;;;;;11.50;11.50;;;;;;;;5078683;27;45270;-73
2022/11/10 04:23:29;;;;;;;;;9.25;8.50;;;;;;;;5087733;27;45914;-73
2022/11/10 04:28:42;;;;;;;;;8.00;6.00;;;;;;;;5090836;27;45325;-73
2022/11/10 04:31:07;;;;;;;;;10.75;8.50;;;;;;;;5092441;27;45465;-73
2022/11/10 04:33:33;;;;;;;;;10.50;9.50;;;;;;;;5081820;27;47384;-73
2022/11/10 04:35:58;;;;;;;;;10.00;8.75;;;;;;;;5096970;27;46043;-73
2022/11/10 04:38:23;;;;;;;;;9.00;8.75;;;;;;;;5085656;27;45323;-73
2022/11/10 04:40:48;;;;;;;;;10.50;8.50;;;;;;;;5080968;27;45605;-73
2022/11/10 04:43:14;;;;;;;;;8.00;7.50;;;;;;;;5092436;27;45495;-73
2022/11/10 04:45:39;;;;;;;;;13.00;11.75;;;;;;;;5079800;27;48508;-73
2022/11/10 04:48:04;;;;;;;;;11.25;8.50;;;;;;;;5087370;27;45262;-73
2022/11/10 04:50:29;;;;;;;;;7.50;7.25;;;;;;;;5081745;27;45356;-73
2022/11/10 04:52:55;;;;;;;;;11.25;8.00;;;;;;;;5088060;27;45678;-73
2022/11/10 04:55:20;;;;;;;;;14.50;11.00;;;;;;;;5081562;27;45538;-73
2022/11/10 04:57:45;;;;;;;;;11.50;10.50;;;;;;;;5085656;27;45731;-73
2022/11/10 05:00:11;;;;;;;;;15.00;11.00;;;;;;;;5095920;27;45313;-73
2022/11/10 05:02:36;;;;;;;;;12.00;11.25;;;;;;;;5085833;27;45480;-73
2022/11/10 05:05:02;;;;;;;;;16.75;16.00;;;;;;;;5080472;27;47133;-74
2022/11/10 05:07:27;;;;;;;;;15.50;14.25;;;;;;;;5083279;27;45356;-73
2022/11/10 05:09:52;;;;;;;;;10.75;9.00;;;;;;;;5081157;27;45220;-73
2022/11/10 05:12:17;;;;;;;;;7.00;5.25;;;;;;;;5083086;27;45406;-74
2022/11/10 05:14:43;;;;;;;;;15.25;12.75;;;;;;;;5080910;27;45999;-73
2022/11/10 05:17:08;;;;;;;;;15.00;14.00;;;;;;;;5083229;27;45449;-73
2022/11/10 05:19:33;;;;;;;;;19.50;17.25;;;;;;;;5081129;27;45367;-73
2022/11/10 05:21:58;;;;;;;;;15.50;15.25;;;;;;;;5085428;27;45354;-73
2022/11/10 05:24:23;;;;;;;;;15.00;13.50;;;;;;;;5080880;27;45296;-73
2022/11/10 05:26:49;;;;;;;;;21.25;16.25;;;;;;;;5082498;27;45422;-73
2022/11/10 05:29:14;;;;;;;;;21.25;17.25;;;;;;;;5080014;27;45552;-73
2022/11/10 05:31:39;;;;;;;;;25.00;21.00;;;;;;;;5082753;27;46298;-74
2022/11/10 05:34:04;;;;;;;;;20.25;17.00;;;;;;;;5085674;27;45376;-73
2022/11/10 05:36:29;;;;;;;;;23.25;21.25;;;;;;;;5080653;27;45410;-74
2022/11/10 05:38:54;;;;;;;;;27.00;16.75;;;;;;;;5083045;27;45404;-75
2022/11/10 05:41:20;;;;;;;;;24.25;20.00;;;;;;;;5082098;27;45512;-75
2022/11/10 05:43:45;;;;;;;;;23.25;20.50;;;;;;;;5083243;27;45426;-75
2022/11/10 05:46:10;;;;;;;;;22.75;21.25;;;;;;;;5083183;27;45224;-75
2022/11/10 05:48:36;;;;;;;;;22.00;16.50;;;;;;;;5095719;27;45436;-75
2022/11/10 05:51:01;;;;;;;;;22.75;20.75;;;;;;;;5081483;27;45401;-75
2022/11/10 05:53:26;;;;;;;;;21.25;17.25;;;;;;;;5085453;27;45428;-75
2022/11/10 05:55:51;;;;;;;;;21.50;20.75;;;;;;;;5080127;27;45424;-75
2022/11/10 05:58:16;;;;;;;;;19.00;16.75;;;;;;;;5092156;27;45312;-75
2022/11/10 06:00:42;;;;;;;;;20.75;19.00;;;;;;;;5080016;27;45362;-72
2022/11/10 06:03:15;;;;;;;;;22.50;19.50;;;;;;;;5084441;27;45567;-75
2022/11/10 06:05:41;;;;;;;;;23.75;19.25;;;;;;;;5087365;27;45288;-76
2022/11/10 06:08:07;;;;;;;;;20.50;19.00;;;;;;;;5086978;27;45879;-76
2022/11/10 06:10:32;;;;;;;;;21.50;21.50;;;;;;;;5080239;27;45540;-76
2022/11/10 06:12:57;;;;;;;;;23.00;17.00;;;;;;;;5089960;27;46957;-75
2022/11/10 06:15:23;;;;;;;;;16.75;16.50;;;;;;;;5080277;27;45497;-75
2022/11/10 06:17:48;;;;;;;;;17.25;15.75;;;;;;;;5080882;27;45220;-75
2022/11/10 06:20:14;;;;;;;;;15.25;9.75;;;;;;;;5080170;27;45539;-74
2022/11/10 06:22:39;;;;;;;;;20.75;14.00;;;;;;;;5085129;27;46831;-74
2022/11/10 06:25:05;;;;;;;;;10.75;10.00;;;;;;;;5080271;27;45389;-74
2022/11/10 06:27:30;;;;;;;;;12.50;9.50;;;;;;;;5081912;27;45355;-75
2022/11/10 06:29:56;;;;;;;;;10.25;10.00;;;;;;;;5094022;27;45235;-73
2022/11/10 06:32:21;;;;;;;;;10.50;10.50;;;;;;;;5082232;27;47979;-75
2022/11/10 06:34:46;;;;;;;;;15.50;10.00;;;;;;;;5086045;27;44736;-74
2022/11/10 06:37:11;;;;;;;;;9.25;8.25;;;;;;;;5081330;27;45247;-74
2022/11/10 06:39:36;;;;;;;;;9.25;7.50;;;;;;;;5079720;28;45200;-74
2022/11/10 06:42:02;;;;;;;;;11.25;9.25;;;;;;;;5082642;27;47953;-74
2022/11/10 06:44:27;;;;;;;;;13.75;10.00;;;;;;;;5084909;27;45386;-74
2022/11/10 06:46:52;;;;;;;;;10.50;8.75;;;;;;;;5089396;27;45394;-74
2022/11/10 06:49:17;;;;;;;;;11.25;9.50;;;;;;;;5083999;27;45476;-74
2022/11/10 06:51:42;;;;;;;;;9.75;9.75;;;;;;;;5083833;27;46213;-74
2022/11/10 06:54:08;;;;;;;;;11.50;9.75;;;;;;;;5079419;27;45282;-74
2022/11/10 06:56:33;;;;;;;;;8.00;8.00;;;;;;;;5084360;27;45272;-75
2022/11/10 06:58:59;;;;;;;;;11.50;9.75;;;;;;;;5080663;27;45386;-75
2022/11/10 07:01:25;;;;;;;;;9.00;8.25;;;;;;;;5094886;27;45207;-75
2022/11/10 07:03:50;;;;;;;;;8.75;7.75;;;;;;;;5078984;27;45236;-75
2022/11/10 07:06:16;;;;;;;;;9.00;8.25;;;;;;;;5081542;27;45161;-73
2022/11/10 07:08:41;;;;;;;;;10.00;7.00;;;;;;;;5078772;27;45513;-74
2022/11/10 07:11:06;;;;;;;;;8.75;5.75;;;;;;;;5080981;27;45816;-73
2022/11/10 07:13:31;;;;;;;;;9.25;8.00;;;;;;;;5082182;27;45371;-76
2022/11/10 07:15:56;;;;;;;;;12.00;8.75;;;;;;;;5097562;27;45260;-77
2022/11/10 07:18:22;;;;;;;;;4.50;4.00;;;;;;;;5084638;27;45422;-76
2022/11/10 07:20:47;;;;;;;;;10.25;8.50;;;;;;;;5078300;27;45979;-78
2022/11/10 07:23:12;;;;;;;;;7.25;7.25;;;;;;;;5082630;27;45415;-77
2022/11/10 07:25:38;;;;;;;;;11.25;9.00;;;;;;;;5078809;27;45326;-78
2022/11/10 07:28:04;;;;;;;;;10.25;10.25;;;;;;;;5081051;27;45401;-76
2022/11/10 07:30:30;;;;;;;;;9.75;8.00;;;;;;;;5081338;27;45469;-77
2022/11/10 07:33:05;;;;;;;;;12.75;9.75;;;;;;;;5081809;27;45481;-75
2022/11/10 07:35:31;;;;;;;;;9.25;8.00;;;;;;;;5081449;27;45347;-75
2022/11/10 07:37:57;;;;;;;;;12.25;10.25;;;;;;;;5080288;27;47738;-75
2022/11/10 07:40:22;;;;;;;;;11.50;9.00;;;;;;;;5078614;27;45421;-75
2022/11/10 07:42:48;;;;;;;;;8.75;5.50;;;;;;;;5083557;27;45130;-75
2022/11/10 07:45:13;;;;;;;;;9.25;9.25;;;;;;;;5079010;28;44765;-75
2022/11/10 07:47:38;;;;;;;;;7.00;7.00;;;;;;;;5092871;27;46635;-76
2022/11/10 07:50:03;;;;;;;;;12.25;10.00;;;;;;;;5079580;27;45430;-75
2022/11/10 07:52:29;;;;;;;;;14.00;8.00;;;;;;;;5085311;27;45137;-76
2022/11/10 07:54:54;;;;;;;;;11.75;9.25;;;;;;;;5080924;27;45510;-75
2022/11/10 07:57:19;;;;;;;;;10.00;9.00;;;;;;;;5090972;27;45539;-75
2022/11/10 07:59:44;;;;;;;;;8.75;8.75;;;;;;;;5090507;27;46647;-76
2022/11/10 08:02:10;;;;;;;;;16.00;11.75;;;;;;;;5090260;27;45468;-76
2022/11/10 08:04:35;;;;;;;;;12.75;10.00;;;;;;;;5096027;27;45306;-77
2022/11/10 08:07:00;;;;;;;;;13.25;12.00;;;;;;;;5084205;27;45664;-77
2022/11/10 08:09:26;;;;;;;;;12.00;9.25;;;;;;;;5082381;27;45328;-76
2022/11/10 08:11:51;;;;;;;;;12.00;12.00;;;;;;;;5084934;27;45286;-75
2022/11/10 08:14:16;;;;;;;;;14.00;12.00;;;;;;;;5082448;27;45201;-75
2022/11/10 08:16:41;;;;;;;;;12.50;11.25;;;;;;;;5084344;27;45359;-76
2022/11/10 08:19:07;;;;;;;;;14.25;12.50;;;;;;;;5081778;27;45391;-76
2022/11/10 08:21:32;;;;;;;;;12.75;10.50;;;;;;;;5084140;27;45996;-75
2022/11/10 08:23:57;;;;;;;;;11.25;11.25;;;;;;;;5080813;27;45355;-77
2022/11/10 08:26:22;;;;;;;;;18.00;14.75;;;;;;;;5081921;27;46010;-76
2022/11/10 08:28:47;;;;;;;;;17.75;15.00;;;;;;;;5083127;27;45464;-76
2022/11/10 08:31:13;;;;;;;;;16.00;14.00;;;;;;;;5095057;27;45415;-77
2022/11/10 08:33:38;;;;;;;;;19.75;15.75;;;;;;;;5086353;27;45469;-77
2022/11/10 08:36:03;;;;;;;;;17.50;13.25;;;;;;;;5082345;27;45256;-76
2022/11/10 08:38:28;;;;;;;;;17.25;12.50;;;;;;;;5085102;27;45289;-77
2022/11/10 08:40:55;;;;;;;;;12.25;11.50;;;;;;;;5081864;27;45450;-76
2022/11/10 08:43:20;;;;;;;;;16.25;12.75;;;;;;;;5084308;27;45427;-76
2022/11/10 08:45:45;;;;;;;;;10.25;10.25;;;;;;;;5081405;27;45291;-76
2022/11/10 08:48:12;;;;;;;;;7.25;7.25;;;;;;;;5090578;27;46596;-76
2022/11/10 08:50:38;;;;;;;;;11.50;11.00;;;;;;;;5081758;27;44836;-76
2022/11/10 08:53:04;;;;;;;;;13.75;11.00;;;;;;;;5085527;27;45420;-76
2022/11/10 08:55:29;;;;;;;;;8.50;7.00;;;;;;;;5088116;27;46521;-76
2022/11/10 08:57:59;;;;;;;;;9.00;9.00;;;;;;;;5094845;27;45900;-76
2022/11/10 09:00:25;;;;;;;;;10.75;9.50;;;;;;;;5093823;27;45460;-76
2022/11/10 09:02:50;;;;;;;;;11.00;8.25;;;;;;;;5092239;27;45458;-76
2022/11/10 09:05:15;;;;;;;;;11.75;9.75;;;;;;;;5095701;27;45362;-76
2022/11/10 09:07:44;;;;;;;;;10.75;9.75;;;;;;;;5083502;27;45325;-76
2022/11/10 09:10:10;;;;;;;;;12.25;10.25;;;;;;;;5081170;27;45212;-76
2022/11/10 09:12:36;;;;;;;;;14.50;12.75;;;;;;;;5089890;27;45226;-76
2022/11/10 09:15:01;;;;;;;;;11.75;10.75;;;;;;;;5082665;27;45554;-76
2022/11/10 09:17:27;;;;;;;;;11.00;8.25;;;;;;;;5083178;27;46425;-76
2022/11/10 09:19:52;;;;;;;;;10.50;10.50;;;;;;;;5081233;27;45253;-75
2022/11/10 09:22:17;;;;;;;;;11.25;10.00;;;;;;;;5085235;27;45371;-76
2022/11/10 09:24:42;;;;;;;;;8.50;7.00;;;;;;;;5081125;27;45354;-75
2022/11/10 09:27:08;;;;;;;;;10.50;10.00;;;;;;;;5086309;27;46286;-75
2022/11/10 09:29:33;;;;;;;;;7.25;7.00;;;;;;;;5090246;27;45296;-76
2022/11/10 09:31:58;;;;;;;;;12.00;11.50;;;;;;;;5092480;27;45283;-75
2022/11/10 09:34:23;;;;;;;;;11.75;7.50;;;;;;;;5090595;27;46317;-76
2022/11/10 09:36:48;;;;;;;;;8.00;6.25;;;;;;;;5085433;27;45456;-76
2022/11/10 09:39:14;;;;;;;;;30.00;22.25;;;;;;;;5080743;27;45466;-76
2022/11/10 09:41:41;;;;;;;;;17.75;15.00;;;;;;;;5085755;27;45321;-76
2022/11/10 09:44:09;;;;;;;;;9.75;7.75;;;;;;;;5087937;27;44772;-75
2022/11/10 09:46:40;;;;;;;;;21.00;15.50;;;;;;;;5082799;27;45482;-76
2022/11/10 09:49:11;;;;;;;;;8.50;6.50;;;;;;;;5082931;27;45390;-76
2022/11/10 09:51:39;;;;;;;;;9.50;8.25;;;;;;;;5082965;27;45431;-76
2022/11/10 09:54:08;;;;;;;;;7.75;7.75;;;;;;;;5083647;27;45146;-76
2022/11/10 09:56:34;;;;;;;;;9.67;7.67;;;;;;;;5085341;27;45394;-76
2022/11/10 09:59:02;;;;;;;;;5.75;4.00;;;;;;;;5081572;27;45303;-76
2022/11/10 10:01:37;;;;;;;;;7.00;6.00;;;;;;;;5097280;27;45286;-76
2022/11/10 10:04:02;;;;;;;;;6.00;6.00;;;;;;;;5080929;27;45521;-77
2022/11/10 10:06:28;;;;;;;;;3.00;3.00;;;;;;;;5082302;27;45507;-77
2022/11/10 10:08:53;;;;;;;;;8.67;7.00;;;;;;;;5091937;27;45338;-77
2022/11/10 10:11:25;;;;;;;;;6.00;4.33;;;;;;;;5082638;27;45264;-77
2022/11/10 10:13:50;;;;;;;;;7.00;4.33;;;;;;;;5079024;27;45387;-76
2022/11/10 10:16:18;;;;;;;;;5.00;3.00;;;;;;;;5078138;27;45425;-76
2022/11/10 10:18:57;;;;;;;;;6.33;4.33;;;;;;;;5077857;27;45477;-76
2022/11/10 10:21:32;;;;;;;;;11.67;10.00;;;;;;;;5090963;27;45493;-76
2022/11/10 10:24:00;;;;;;;;;3.00;3.00;;;;;;;;5082411;27;45330;-78
2022/11/10 10:26:29;;;;;;;;;6.33;3.33;;;;;;;;5089446;27;45616;-77
2022/11/10 10:28:56;;;;;;;;;5.00;4.00;;;;;;;;5079173;27;45444;-76
2022/11/10 10:31:26;;;;;;;;;12.00;8.33;;;;;;;;5079810;27;45327;-76
2022/11/10 10:33:52;;;;;;;;;5.67;4.33;;;;;;;;5082380;27;45370;-76
2022/11/10 10:36:19;;;;;;;;;5.33;3.00;;;;;;;;5082585;27;45469;-76
2022/11/10 10:38:46;;;;;;;;;4.00;4.00;;;;;;;;5083569;27;45248;-76
2022/11/10 10:41:19;;;;;;;;;6.33;4.00;;;;;;;;5081675;27;45346;-76
2022/11/10 10:43:46;;;;;;;;;5.67;4.33;;;;;;;;5079697;28;45757;-76
2022/11/10 10:46:14;;;;;;;;;4.00;4.00;;;;;;;;5081603;27;46109;-76
2022/11/10 10:48:40;;;;;;;;;5.67;3.67;;;;;;;;5079900;27;45118;-78
2022/11/10 10:51:05;;;;;;;;;3.00;3.00;;;;;;;;5081108;27;45242;-76
2022/11/10 10:53:30;;;;;;;;;5.67;3.00;;;;;;;;5082081;27;45426;-76
2022/11/10 10:56:02;;;;;;;;;4.33;2.00;;;;;;;;5093081;27;46134;-76
2022/11/10 10:58:32;;;;;;;;;6.00;5.00;;;;;;;;5084786;27;45257;-77
2022/11/10 11:01:18;;;;;;;;;4.00;2.67;;;;;;;;5093627;27;45542;-76
2022/11/10 11:03:48;;;;;;;;;2.67;2.67;;;;;;;;5084640;27;45272;-76
2022/11/10 11:06:14;;;;;;;;;6.00;3.00;;;;;;;;5088719;27;45473;-76
2022/11/10 11:08:51;;;;;;;;;5.67;3.00;;;;;;;;5082730;27;45259;-76
2022/11/10 11:11:17;;;;;;;;;3.00;3.00;;;;;;;;5079416;27;45594;-76
2022/11/10 11:13:42;;;;;;;;;5.33;3.00;;;;;;;;5083179;27;45430;-78
2022/11/10 11:16:08;;;;;;;;;2.67;2.67;;;;;;;;5078162;27;46224;-76
2022/11/10 11:18:36;;;;;;;;;5.33;4.00;;;;;;;;5079155;27;45342;-78
2022/11/10 11:21:04;;;;;;;;;2.67;2.67;;;;;;;;5078996;27;45416;-77
2022/11/10 11:23:42;;;;;;;;;2.00;2.00;;;;;;;;5079001;27;45264;-75
2022/11/10 11:26:27;;;;;;;;;7.00;4.00;;;;;;;;5080488;27;45389;-77
2022/11/10 11:28:59;;;;;;;;;1.00;1.00;;;;;;;;5087816;27;45307;-77
2022/11/10 11:31:32;;;;;;;;;4.33;4.00;;;;;;;;5079160;27;45347;-77
2022/11/10 11:34:01;;;;;;;;;6.67;4.00;;;;;;;;5087267;27;45441;-76
2022/11/10 11:36:45;;;;;;;;;7.00;5.00;;;;;;;;5081341;27;45690;-76
2022/11/10 11:39:22;;;;;;;;;2.00;2.00;;;;;;;;5089109;27;45330;-76
2022/11/10 11:42:05;;;;;;;;;3.33;2.00;;;;;;;;5084560;27;45300;-76
2022/11/10 11:44:36;;;;;;;;;4.33;3.67;;;;;;;;5078926;27;45629;-76
2022/11/10 11:47:18;;;;;;;;;4.00;4.00;;;;;;;;5081077;27;45589;-76
2022/11/10 11:49:49;;;;;;;;;5.00;4.33;;;;;;;;5079034;27;45322;-76
2022/11/10 11:52:15;;;;;;;;;8.67;4.33;;;;;;;;5080669;27;45486;-76
2022/11/10 11:54:46;;;;;;;;;5.67;4.67;;;;;;;;5082395;27;45634;-76
2022/11/10 11:57:11;;;;;;;;;3.00;3.00;;;;;;;;5085515;27;47638;-77
2022/11/10 11:59:58;;;;;;;;;5.75;4.50;;;;;;;;5082787;27;45324;-77
2022/11/10 12:02:41;;;;;;;;;4.33;3.00;;;;;;;;5081011;27;45266;-77
2022/11/10 12:05:07;;;;;;;;;11.00;7.67;;;;;;;;5078680;27;45302;-76
2022/11/10 12:07:49;;;;;;;;;5.50;5.50;;;;;;;;5084543;27;46103;-76
2022/11/10 12:10:17;;;;;;;;;4.67;4.67;;;;;;;;5087106;27;45368;-77
2022/11/10 12:12:42;;;;;;;;;4.00;2.33;;;;;;;;5083476;27;45546;-77
2022/11/10 12:15:26;;;;;;;;;3.33;3.00;;;;;;;;5078537;27;45337;-77
2022/11/10 12:18:10;;;;;;;;;2.67;1.00;;;;;;;;5080555;27;47142;-77
2022/11/10 12:20:35;;;;;;;;;0.67;0.67;;;;;;;;5093961;27;45446;-76
2022/11/10 12:23:12;;;;;;;;;2.67;2.00;;;;;;;;5079731;27;45556;-76
2022/11/10 12:25:40;;;;;;;;;3.00;3.00;;;;;;;;5078495;27;45295;-75
2022/11/10 12:28:11;;;;;;;;;5.00;3.00;;;;;;;;5077346;27;45316;-76
2022/11/10 12:30:38;;;;;;;;;4.00;2.00;;;;;;;;5078450;27;45337;-76
2022/11/10 12:33:09;;;;;;;;;2.33;1.00;;;;;;;;5085977;27;45263;-76
2022/11/10 12:35:38;;;;;;;;;2.00;2.00;;;;;;;;5086660;27;45333;-76
2022/11/10 12:38:19;;;;;;;;;4.00;2.67;;;;;;;;5085683;27;45363;-76
2022/11/10 12:40:44;;;;;;;;;5.00;3.00;;;;;;;;5088903;27;45362;-76
2022/11/10 12:43:28;;;;;;;;;3.67;3.67;;;;;;;;5086001;27;45350;-75
2022/11/10 12:45:56;;;;;;;;;4.00;3.00;;;;;;;;5091898;27;45553;-75
2022/11/10 12:48:22;;;;;;;;;6.00;3.00;;;;;;;;5084995;27;46995;-75
2022/11/10 12:50:47;;;;;;;;;4.00;3.00;;;;;;;;5095634;27;45236;-75
2022/11/10 12:53:21;;;;;;;;;5.67;3.00;;;;;;;;5097024;27;45267;-75
2022/11/10 12:55:49;;;;;;;;;2.33;2.33;;;;;;;;5081011;27;45522;-73
2022/11/10 12:58:15;;;;;;;;;2.33;2.00;;;;;;;;5093446;27;46446;-75
2022/11/10 13:00:53;;;;;;;;;9.00;7.67;;;;;;;;5081286;27;45433;-74
2022/11/10 13:03:27;;;;;;;;;4.33;3.00;;;;;;;;5088184;27;45341;-75
2022/11/10 13:05:58;;;;;;;;;4.00;4.00;;;;;;;;5081271;27;45389;-75
2022/11/10 13:08:28;;;;;;;;;5.00;5.00;;;;;;;;5083308;27;45429;-75
2022/11/10 13:10:54;;;;;;;;;6.00;4.00;;;;;;;;5093783;27;44893;-75
2022/11/10 13:13:21;;;;;;;;;5.00;4.00;;;;;;;;5085653;27;45418;-75
2022/11/10 13:15:51;;;;;;;;;6.67;5.33;;;;;;;;5087258;27;45507;-74
2022/11/10 13:18:42;;;;;;;;;9.00;5.33;;;;;;;;5091776;27;45331;-74
2022/11/10 13:21:08;;;;;;;;;7.33;6.00;;;;;;;;5096493;27;45144;-75
2022/11/10 13:23:36;;;;;;;;;5.00;3.33;;;;;;;;5092002;27;45242;-75
2022/11/10 13:26:27;;;;;;;;;5.00;3.67;;;;;;;;5091398;27;45382;-74
2022/11/10 13:29:01;;;;;;;;;4.00;2.33;;;;;;;;5080362;27;46114;-74
2022/11/10 13:31:26;;;;;;;;;6.33;6.00;;;;;;;;5082923;27;46603;-74
2022/11/10 13:34:06;;;;;;;;;6.00;6.00;;;;;;;;5094743;27;45312;-74
2022/11/10 13:36:41;;;;;;;;;6.00;5.00;;;;;;;;5082920;27;45232;-75
2022/11/10 13:39:18;;;;;;;;;6.00;3.00;;;;;;;;5079823;27;46274;-75
2022/11/10 13:42:00;;;;;;;;;5.33;4.33;;;;;;;;5081543;27;45386;-75
2022/11/10 13:44:36;;;;;;;;;8.00;7.00;;;;;;;;5086562;27;45378;-75
2022/11/10 13:47:04;;;;;;;;;7.67;7.00;;;;;;;;5091428;27;45149;-75
2022/11/10 13:49:50;;;;;;;;;12.00;8.00;;;;;;;;5094224;27;45579;-74
2022/11/10 13:52:28;;;;;;;;;8.67;7.00;;;;;;;;5078957;27;45293;-75
2022/11/10 13:55:11;;;;;;;;;10.00;8.67;;;;;;;;5089003;27;45249;-74
2022/11/10 13:57:37;;;;;;;;;6.67;6.00;;;;;;;;5081597;27;45492;-75
2022/11/10 14:00:21;;;;;;;;;10.67;6.67;;;;;;;;5080128;27;46226;-75
2022/11/10 14:02:47;;;;;;;;;10.67;8.67;;;;;;;;5082373;27;45237;-75
2022/11/10 14:05:42;;;;;;;;;12.33;9.00;;;;;;;;5084296;27;45212;-75
2022/11/10 14:08:16;;;;;;;;;9.00;7.00;;;;;;;;5070953;27;45438;-75
2022/11/10 14:10:46;;;;;;;;;12.33;8.67;;;;;;;;5078300;27;48077;-75
2022/11/10 14:13:15;;;;;;;;;9.00;9.00;;;;;;;;5082433;27;45450;-75
2022/11/10 14:15:42;;;;;;;;;10.33;9.00;;;;;;;;5080780;27;45347;-75
2022/11/10 14:18:17;;;;;;;;;10.33;10.00;;;;;;;;5081884;27;45608;-74
2022/11/10 14:20:44;;;;;;;;;11.33;10.00;;;;;;;;5099706;27;45468;-74
2022/11/10 14:23:23;;;;;;;;;9.33;9.33;;;;;;;;5086513;27;45334;-74
2022/11/10 14:25:54;;;;;;;;;12.33;10.33;;;;;;;;5079389;27;45350;-75
2022/11/10 14:28:26;;;;;;;;;11.67;10.00;;;;;;;;5079867;27;46916;-74
2022/11/10 14:30:53;;;;;;;;;14.67;13.00;;;;;;;;5078242;27;46039;-75
2022/11/10 14:33:19;;;;;;;;;10.33;8.33;;;;;;;;5079844;27;45184;-75
2022/11/10 14:35:58;;;;;;;;;14.00;12.00;;;;;;;;5089810;27;45354;-75
2022/11/10 14:38:25;;;;;;;;;10.00;9.00;;;;;;;;5082173;27;44865;-75
2022/11/10 14:40:52;;;;;;;;;7.67;7.33;;;;;;;;5079056;27;45676;-75
2022/11/10 14:43:37;;;;;;;;;7.00;7.00;;;;;;;;5082689;27;45290;-75
2022/11/10 14:46:04;;;;;;;;;12.00;8.00;;;;;;;;5078375;27;45249;-75